Time;durP1;ratioP1;P1;durP2;ratioP2;P2;SDS_P1;SDS_P2;PMS_P1;PMS_P2;Temp;Humidity;BMP_temperature;BMP_pressure;BME280_temperature;BME280_humidity;BME280_pressure;Samples;Min_cycle;Max_cycle;Signal;HPM_P1;HPM_P2
2023/08/04 00:01:06;;;;;;;13.00;3.22;;;16.80;99.90;;;15.81;100.00;99858.41;4787627;29;20503;-81
2023/08/04 00:04:14;;;;;;;10.27;3.33;;;;;;;15.87;100.00;99873.81;4774086;29;20050;-81
2023/08/04 00:06:25;;;;;;;8.75;3.10;;;16.90;99.90;;;15.93;100.00;99869.81;4719769;29;20601;-81
2023/08/04 00:08:51;;;;;;;7.93;3.20;;;16.90;99.90;;;16.01;100.00;99870.03;4788662;29;20144;-80
2023/08/04 00:14:21;;;;;;;9.23;3.88;;;16.90;99.90;;;16.02;100.00;99873.53;4819439;29;20037;-81
2023/08/04 00:17:08;;;;;;;11.48;4.13;;;17.00;99.90;;;15.96;100.00;99869.56;4806235;29;20036;-81
2023/08/04 00:20:00;;;;;;;15.68;4.45;;;;;;;15.95;100.00;99878.50;4775831;29;20269;-80
2023/08/04 00:22:44;;;;;;;18.10;3.72;;;16.90;99.90;;;15.89;100.00;99881.66;4834478;29;20529;-80
2023/08/04 00:25:33;;;;;;;10.65;3.72;;;16.80;99.90;;;15.86;100.00;99887.22;4818298;29;20057;-81
2023/08/04 00:28:03;;;;;;;16.80;3.97;;;16.80;99.90;;;15.82;100.00;99896.41;4771299;29;20104;-80
2023/08/04 00:31:18;;;;;;;;;;;;;;;;;;;;;
2023/08/04 00:34:12;;;;;;;8.40;3.75;;;16.80;99.90;;;15.82;100.00;99893.75;4766735;29;20050;-81
2023/08/04 00:36:52;;;;;;;11.48;3.83;;;;;;;15.78;100.00;99893.97;4733272;29;20592;-81
2023/08/04 00:39:54;;;;;;;;;;;;;;;;;;;;;
2023/08/04 00:42:21;;;;;;;15.35;3.58;;;;;;;15.77;100.00;99904.75;4742842;29;20698;-81
2023/08/04 00:48:33;;;;;;;18.27;4.22;;;16.70;99.90;;;15.78;100.00;99909.91;4711281;29;20042;-81
2023/08/04 00:51:14;;;;;;;20.90;4.43;;;16.70;99.90;;;15.76;100.00;99911.84;4734390;29;20088;-80
2023/08/04 00:53:55;;;;;;;16.92;4.07;;;;;;;15.73;100.00;99906.81;4740460;29;20114;-81
2023/08/04 00:57:22;;;;;;;16.50;4.00;;;16.70;99.90;;;15.66;100.00;99907.38;4743704;29;20059;-81
2023/08/04 01:00:03;;;;;;;18.15;4.65;;;;;;;15.60;100.00;99911.38;4796926;29;20459;-81
2023/08/04 01:02:42;;;;;;;17.20;5.07;;;;;;;15.57;100.00;99919.56;4809765;29;20600;-81
2023/08/04 01:09:32;;;;;;;23.83;5.75;;;;;;;15.51;100.00;99925.41;4784490;28;20110;-80
2023/08/04 01:12:51;;;;;;;13.68;5.22;;;16.50;99.90;;;15.55;100.00;99932.13;4808463;29;20033;-82
2023/08/04 01:16:04;;;;;;;13.43;5.18;;;16.60;99.90;;;15.61;100.00;99931.63;4807888;29;20130;-82
2023/08/04 01:19:14;;;;;;;13.70;4.70;;;16.60;99.90;;;15.69;100.00;99934.53;4845386;29;20045;-83
2023/08/04 01:21:52;;;;;;;11.05;4.68;;;16.70;99.90;;;15.78;100.00;99939.09;4782366;29;20058;-82
2023/08/04 01:24:21;;;;;;;15.60;4.72;;;16.70;99.90;;;15.81;100.00;99931.88;4762663;29;20045;-82
2023/08/04 01:26:53;;;;;;;15.57;5.03;;;17.10;99.90;;;15.88;100.00;99935.72;4814309;29;20051;-81
2023/08/04 01:29:32;;;;;;;25.50;5.13;;;16.80;99.90;;;15.96;100.00;99949.19;4750997;29;20037;-83
2023/08/04 01:32:02;;;;;;;24.92;5.20;;;;;;;16.01;100.00;99946.19;4739734;29;20038;-81
2023/08/04 01:34:52;;;;;;;14.32;4.93;;;;;;;16.05;100.00;99951.13;4794080;29;20121;-82
2023/08/04 01:37:24;;;;;;;15.88;4.80;;;;;;;16.08;100.00;99955.34;4795542;29;20049;-80
2023/08/04 01:40:13;;;;;;;11.68;4.88;;;17.00;99.90;;;16.09;100.00;99957.00;4842906;29;20106;-81
2023/08/04 01:46:27;;;;;;;11.18;4.70;;;17.00;99.90;;;16.11;100.00;99963.03;4662161;30;20980;-82
2023/08/04 01:48:53;;;;;;;19.15;6.03;;;17.00;99.90;;;16.15;100.00;99973.28;4733375;29;20098;-81
2023/08/04 01:51:32;;;;;;;18.25;5.40;;;17.00;99.90;;;16.12;100.00;99965.56;4775701;29;20057;-82
2023/08/04 01:54:08;;;;;;;15.98;4.85;;;17.10;99.90;;;16.10;100.00;99964.03;4775079;29;20042;-82
2023/08/04 01:56:33;;;;;;;20.30;5.75;;;17.00;99.90;;;16.03;100.00;99961.03;4729434;29;20081;-81
2023/08/04 01:59:40;;;;;;;14.65;5.55;;;;;;;15.99;100.00;99959.59;4796122;29;20132;-82
2023/08/04 02:02:36;;;;;;;;;;;;;;;;;;;;;
2023/08/04 02:05:16;;;;;;;17.55;6.65;;;;;;;15.95;100.00;99968.75;4764626;29;21210;-83
2023/08/04 02:07:42;;;;;;;19.13;6.80;;;16.90;99.90;;;16.01;100.00;99970.09;4752147;29;20063;-81
2023/08/04 02:10:13;;;;;;;19.90;7.00;;;16.90;99.90;;;15.99;100.00;99967.56;4794672;29;20054;-81
2023/08/04 02:13:02;;;;;;;21.27;7.68;;;16.90;99.90;;;16.00;100.00;99979.84;4808713;29;20044;-82
2023/08/04 02:16:00;;;;;;;21.90;7.57;;;16.90;99.90;;;15.96;100.00;99987.25;4811958;29;20047;-82
2023/08/04 02:21:22;;;;;;;21.48;7.32;;;16.80;99.90;;;15.91;100.00;99985.91;4773891;29;20065;-82
2023/08/04 02:24:15;;;;;;;19.95;7.78;;;16.90;99.90;;;15.90;100.00;99990.38;4794450;29;20041;-81
2023/08/04 02:26:44;;;;;;;18.33;8.00;;;;;;;15.90;100.00;99994.84;4789111;29;20033;-82
2023/08/04 02:29:18;;;;;;;24.85;7.07;;;16.80;99.90;;;15.90;100.00;100002.81;4811420;29;20133;-82
2023/08/04 02:31:44;;;;;;;19.25;8.02;;;16.80;99.90;;;15.86;100.00;100002.22;4769408;29;21080;-81
2023/08/04 02:34:24;;;;;;;19.88;8.38;;;;;;;15.92;100.00;100006.19;4797496;29;20129;-82
2023/08/04 02:36:53;;;;;;;21.73;7.38;;;16.80;99.90;;;15.96;100.00;100010.25;4812163;29;20064;-82
2023/08/04 02:39:42;;;;;;;17.52;7.53;;;16.80;99.90;;;16.01;100.00;100013.41;4774960;29;20046;-82
2023/08/04 02:42:13;;;;;;;19.98;6.50;;;16.90;99.90;;;16.06;100.00;100024.50;4763844;29;20447;-82
2023/08/04 02:44:45;;;;;;;18.27;6.90;;;;;;;16.13;100.00;100028.38;4773673;29;20113;-80
2023/08/04 02:47:11;;;;;;;19.90;6.63;;;;;;;16.16;100.00;100030.75;4772340;29;20111;-82
2023/08/04 02:49:37;;;;;;;23.13;6.95;;;17.10;99.90;;;16.20;100.00;100032.19;4775725;29;20106;-82
2023/08/04 02:52:04;;;;;;;18.02;6.72;;;;;;;16.20;100.00;100032.19;4756151;29;20137;-80
2023/08/04 02:54:55;;;;;;;15.98;6.05;;;17.10;99.90;;;16.26;100.00;100043.28;4792770;29;20050;-81
2023/08/04 02:57:28;;;;;;;18.45;7.10;;;17.10;99.90;;;16.22;100.00;100048.03;4777344;28;20061;-82
2023/08/04 02:59:58;;;;;;;18.15;7.22;;;17.10;99.90;;;16.24;100.00;100055.84;4845261;28;20051;-81
2023/08/04 03:02:35;;;;;;;;;;;;;;;;;;;;;
2023/08/04 03:05:02;;;;;;;19.25;6.22;;;;;;;16.30;100.00;100063.31;4913445;28;21100;-80
2023/08/04 03:10:23;;;;;;;17.13;6.18;;;;;;;16.32;100.00;100077.31;4854240;29;20052;-81
2023/08/04 03:12:52;;;;;;;18.45;6.10;;;;;;;16.35;100.00;100079.75;4865663;29;20170;-81
2023/08/04 03:15:23;;;;;;;13.55;5.85;;;17.20;99.90;;;16.37;100.00;100089.28;4843786;29;20393;-81
2023/08/04 03:17:52;;;;;;;12.73;5.53;;;17.30;99.90;;;16.39;100.00;100094.44;4866259;29;20083;-81
2023/08/04 03:20:18;;;;;;;16.98;5.78;;;17.30;99.90;;;16.39;100.00;100095.31;4873838;29;20055;-81
2023/08/04 03:22:43;;;;;;;21.42;6.25;;;17.30;99.90;;;16.42;100.00;100101.34;4918254;23;20144;-81
2023/08/04 03:25:09;;;;;;;16.95;5.50;;;17.30;99.90;;;16.42;100.00;100109.31;4967782;28;20061;-80
2023/08/04 03:27:41;;;;;;;10.02;5.05;;;17.30;99.90;;;16.42;100.00;100112.81;4983813;28;20541;-81
2023/08/04 03:30:10;;;;;;;15.77;5.30;;;17.30;99.90;;;16.44;100.00;100120.69;4959957;28;20124;-81
2023/08/04 03:32:36;;;;;;;11.82;5.20;;;17.30;99.90;;;16.46;100.00;100118.72;4956929;28;20094;-80
2023/08/04 03:35:02;;;;;;;15.23;5.18;;;17.30;99.90;;;16.45;100.00;100123.19;4923035;28;20130;-80
2023/08/04 03:37:50;;;;;;;22.70;5.03;;;17.40;99.90;;;16.46;100.00;100129.34;4949372;28;20042;-80
2023/08/04 03:40:17;;;;;;;16.25;4.53;;;;;;;16.50;100.00;100134.31;4839516;29;20548;-81
2023/08/04 03:42:43;;;;;;;13.35;4.20;;;17.40;99.90;;;16.50;100.00;100131.66;4909617;23;20133;-80
2023/08/04 03:45:09;;;;;;;14.10;4.53;;;17.40;99.90;;;16.51;100.00;100133.31;4953638;28;20037;-81
2023/08/04 03:47:41;;;;;;;15.60;4.97;;;17.40;99.90;;;16.51;100.00;100130.66;4914235;28;20042;-81
2023/08/04 03:50:10;;;;;;;20.88;4.95;;;17.40;99.90;;;16.50;100.00;100129.00;4949697;28;20034;-81
2023/08/04 03:52:35;;;;;;;15.82;4.65;;;17.40;99.90;;;16.53;100.00;100131.38;4914718;28;20523;-81
2023/08/04 03:55:02;;;;;;;13.88;4.07;;;17.40;99.90;;;16.56;100.00;100133.78;4932818;28;20053;-82
2023/08/04 03:57:33;;;;;;;9.52;4.47;;;17.40;99.90;;;16.57;100.00;100132.84;4917228;28;20069;-80
2023/08/04 04:00:00;;;;;;;12.35;5.25;;;17.50;99.90;;;16.55;100.00;100128.63;4948481;28;20560;-82
2023/08/04 04:02:28;;;;;;;15.27;4.70;;;17.50;99.90;;;16.55;100.00;100129.44;4918550;23;20050;-81
2023/08/04 04:05:01;;;;;;;16.33;5.28;;;;;;;16.54;100.00;100133.09;4892057;28;20047;-79
2023/08/04 04:07:26;;;;;;;17.10;4.78;;;17.40;99.90;;;16.50;100.00;100136.97;4903070;28;20042;-81
2023/08/04 04:09:53;;;;;;;11.90;4.07;;;;;;;16.56;100.00;100136.44;4893258;28;20126;-80
2023/08/04 04:12:21;;;;;;;14.70;4.63;;;17.50;99.90;;;16.60;100.00;100145.84;4936512;28;20034;-79
2023/08/04 04:14:54;;;;;;;8.88;4.50;;;;;;;16.61;100.00;100147.56;4919716;28;20046;-82
2023/08/04 04:17:23;;;;;;;16.35;4.90;;;;;;;16.67;100.00;100156.00;4921778;28;20042;-82
2023/08/04 04:20:14;;;;;;;16.23;4.75;;;17.50;99.90;;;16.78;100.00;100150.66;4897065;28;20036;-83
2023/08/04 04:22:43;;;;;;;18.38;6.10;;;17.60;99.90;;;16.94;100.00;100151.13;4913966;23;20050;-81
2023/08/04 04:25:35;;;;;;;13.20;4.68;;;;;;;17.02;100.00;100159.31;4897877;28;20043;-81
2023/08/04 04:28:03;;;;;;;11.88;4.90;;;;;;;17.14;100.00;100159.25;4848315;28;20040;-82
2023/08/04 04:30:53;;;;;;;15.35;4.25;;;17.90;99.90;;;17.24;100.00;100162.00;4907327;28;20091;-82
2023/08/04 04:33:24;;;;;;;10.45;4.18;;;18.00;99.90;;;17.29;100.00;100165.97;4874452;28;20636;-82
2023/08/04 04:36:13;;;;;;;11.80;4.00;;;;;;;17.34;100.00;100174.44;4892505;28;20159;-82
2023/08/04 04:38:45;;;;;;;14.85;4.50;;;;;;;17.42;100.00;100187.91;4857944;28;20067;-81
2023/08/04 04:41:23;;;;;;;15.18;4.80;;;;;;;17.42;100.00;100185.25;4821076;28;20111;-81
2023/08/04 04:44:03;;;;;;;14.60;4.30;;;;;;;17.41;100.00;100188.91;4904711;23;20466;-81
2023/08/04 04:46:45;;;;;;;10.27;4.10;;;;;;;17.38;100.00;100186.47;4884688;28;20065;-81
2023/08/04 04:49:54;;;;;;;9.32;4.00;;;18.20;99.90;;;17.38;100.00;100185.63;4882651;28;20035;-82
2023/08/04 04:52:35;;;;;;;11.15;4.30;;;;;;;17.37;100.00;100194.59;4811763;29;20045;-82
2023/08/04 04:55:12;;;;;;;9.85;4.30;;;18.20;99.90;;;17.30;100.00;100198.72;4787822;29;20045;-81
2023/08/04 04:57:56;;;;;;;9.32;4.60;;;18.20;99.90;;;17.31;100.00;100201.28;4764240;29;20155;-81
2023/08/04 05:01:02;;;;;;;12.23;5.10;;;18.20;99.90;;;17.32;100.00;100213.63;4798853;29;20056;-82
2023/08/04 05:06:52;;;;;;;17.13;6.15;;;;;;;17.21;100.00;100221.63;4800040;29;20041;-82
2023/08/04 05:09:24;;;;;;;15.73;5.68;;;;;;;17.17;100.00;100218.38;4757039;29;20054;-82
2023/08/04 05:12:13;;;;;;;14.23;6.00;;;;;;;17.16;100.00;100221.16;4728628;29;20081;-81
2023/08/04 05:14:40;;;;;;;32.45;6.43;;;18.00;99.90;;;17.15;100.00;100225.66;4776180;29;20085;-78
2023/08/04 05:17:06;;;;;;;26.10;6.72;;;18.00;99.90;;;17.12;100.00;100225.88;4789880;29;20038;-77
2023/08/04 05:19:32;;;;;;;22.63;6.78;;;18.00;99.90;;;17.07;100.00;100224.59;4776799;29;20180;-79
2023/08/04 05:22:07;;;;;;;16.88;6.90;;;18.00;99.90;;;17.05;100.00;100234.50;4766914;29;20133;-79
2023/08/04 05:24:32;;;;;;;11.88;6.25;;;17.90;99.90;;;17.05;100.00;100242.47;4797203;29;20447;-79
2023/08/04 05:26:58;;;;;;;19.45;6.15;;;17.90;99.90;;;16.94;100.00;100244.19;4777053;29;20039;-79
2023/08/04 05:29:24;;;;;;;16.45;6.85;;;17.90;99.90;;;17.03;100.00;100253.25;4841644;29;20108;-80
2023/08/04 05:31:55;;;;;;;17.65;6.07;;;17.90;99.90;;;17.05;100.00;100247.81;4862403;29;20131;-79
2023/08/04 05:34:21;;;;;;;13.57;5.75;;;17.90;99.90;;;17.05;100.00;100258.44;4838095;29;20621;-80
2023/08/04 05:36:47;;;;;;;16.60;6.05;;;17.90;99.90;;;17.09;100.00;100266.03;4837112;29;20121;-79
2023/08/04 05:39:13;;;;;;;14.40;7.47;;;18.00;99.90;;;17.12;100.00;100262.28;4894631;29;20127;-78
2023/08/04 05:41:38;;;;;;;15.68;6.85;;;17.90;99.90;;;17.02;100.00;100265.69;4872602;29;20071;-78
2023/08/04 05:44:04;;;;;;;7.13;3.17;;;17.90;99.90;;;16.90;100.00;100276.47;4855213;29;20064;-78
2023/08/04 05:46:32;;;;;;;9.43;3.17;;;17.80;99.90;;;16.80;100.00;100276.34;4880453;28;20039;-80
2023/08/04 05:49:00;;;;;;;5.18;2.80;;;17.70;99.90;;;16.70;100.00;100283.38;4931691;28;20128;-80
2023/08/04 05:51:26;;;;;;;8.15;3.20;;;17.70;99.90;;;16.65;100.00;100281.06;4956392;28;20571;-79
2023/08/04 05:53:52;;;;;;;15.60;3.97;;;17.70;99.90;;;16.67;100.00;100292.41;4945151;28;20149;-78
2023/08/04 05:56:18;;;;;;;11.43;3.60;;;17.70;99.90;;;16.74;100.00;100298.09;4942798;28;20061;-78
2023/08/04 05:58:44;;;;;;;8.75;4.10;;;17.70;99.90;;;16.81;100.00;100288.69;4943195;28;20055;-79
2023/08/04 06:01:09;;;;;;;6.90;3.72;;;17.70;99.90;;;16.84;100.00;100301.75;4956402;28;20509;-79
2023/08/04 06:03:43;;;;;;;9.68;3.80;;;17.80;99.90;;;16.91;100.00;100310.94;4950929;28;20091;-79
2023/08/04 06:06:09;;;;;;;7.55;2.80;;;17.80;99.90;;;16.86;100.00;100315.75;4920933;28;20070;-80
2023/08/04 06:08:35;;;;;;;14.27;4.70;;;17.80;99.90;;;17.00;100.00;100320.00;4920684;28;20109;-78
2023/08/04 06:11:01;;;;;;;15.30;4.05;;;17.90;99.90;;;17.14;100.00;100327.69;4902585;28;20121;-79
2023/08/04 06:13:34;;;;;;;11.02;4.30;;;18.00;99.90;;;17.34;100.00;100334.09;4973123;28;20649;-79
2023/08/04 06:16:00;;;;;;;8.82;4.03;;;18.10;99.90;;;17.45;100.00;100335.88;4938344;28;20051;-79
2023/08/04 06:18:26;;;;;;;8.77;3.30;;;18.20;99.90;;;17.55;100.00;100331.47;4946747;28;20064;-78
2023/08/04 06:20:52;;;;;;;14.07;3.47;;;18.30;99.90;;;17.70;100.00;100345.34;4947695;28;20065;-80
2023/08/04 06:23:23;;;;;;;13.63;3.42;;;18.40;99.90;;;17.91;100.00;100344.56;4906528;28;20048;-79
2023/08/04 06:25:49;;;;;;;13.20;3.55;;;18.60;99.90;;;18.11;100.00;100343.72;4871993;29;20047;-80
2023/08/04 06:28:15;;;;;;;8.52;2.80;;;18.70;99.90;;;17.98;100.00;100346.56;4859532;29;20044;-78
2023/08/04 06:30:41;;;;;;;8.35;2.50;;;18.70;99.90;;;17.91;100.00;100360.56;4905927;28;20078;-79
2023/08/04 06:33:07;;;;;;;8.32;2.70;;;18.60;99.90;;;17.79;100.00;100355.22;4896007;28;20050;-79
2023/08/04 06:35:33;;;;;;;15.23;3.92;;;18.60;99.90;;;17.79;100.00;100360.53;4909717;28;20432;-78
2023/08/04 06:38:04;;;;;;;11.25;2.72;;;18.60;99.90;;;17.72;100.00;100362.03;4894828;28;20044;-80
2023/08/04 06:40:30;;;;;;;9.57;2.88;;;18.60;99.90;;;17.82;100.00;100375.47;4869551;28;20040;-79
2023/08/04 06:42:56;;;;;;;12.98;3.17;;;18.60;99.90;;;17.92;100.00;100380.88;4871843;29;20058;-78
2023/08/04 06:45:22;;;;;;;13.77;3.35;;;18.70;99.90;;;17.92;100.00;100373.72;4859487;29;20104;-79
2023/08/04 06:47:48;;;;;;;11.07;2.60;;;18.70;99.90;;;17.95;100.00;100391.28;4882196;28;20043;-78
2023/08/04 06:50:25;;;;;;;12.52;3.00;;;18.70;99.90;;;17.91;100.00;100389.84;4898423;29;20527;-78
2023/08/04 06:52:51;;;;;;;10.57;3.28;;;18.70;99.90;;;17.95;100.00;100401.94;4901148;28;20040;-79
2023/08/04 06:55:16;;;;;;;11.95;3.65;;;18.80;99.90;;;18.05;100.00;100400.19;4917216;28;20126;-79
2023/08/04 06:57:48;;;;;;;6.05;2.60;;;18.80;99.90;;;17.99;100.00;100398.91;4953828;28;20115;-78
2023/08/04 07:00:14;;;;;;;12.35;2.85;;;18.80;99.90;;;18.21;100.00;100400.59;4921617;28;20027;-77
2023/08/04 07:02:42;;;;;;;12.82;3.45;;;19.10;99.90;;;18.90;100.00;100415.25;4945207;28;20059;-79
2023/08/04 07:05:08;;;;;;;11.48;2.85;;;19.80;99.90;;;20.97;97.59;100425.03;4917989;28;20089;-77
2023/08/04 07:07:36;;;;;;;8.88;2.53;;;21.20;99.90;;;23.25;85.80;100440.78;4928544;28;20034;-78
2023/08/04 07:10:05;;;;;;;6.35;2.33;;;22.90;99.90;;;24.91;77.11;100446.28;4951997;28;20039;-79
2023/08/04 07:12:33;;;;;;;9.88;2.58;;;24.20;99.90;;;25.48;71.82;100446.09;4946067;28;20042;-79
2023/08/04 07:14:59;;;;;;;7.97;2.10;;;24.80;99.90;;;25.14;70.96;100443.66;4952966;28;20030;-80
2023/08/04 07:17:24;;;;;;;5.55;1.55;;;25.50;99.90;;;25.96;67.18;100463.06;4938267;28;20105;-79
2023/08/04 07:20:00;;;;;;;7.45;1.85;;;26.20;99.90;;;27.22;63.27;100476.22;4938057;28;20041;-79
2023/08/04 07:22:26;;;;;;;8.25;2.08;;;26.90;99.90;;;28.14;60.04;100491.91;4936938;28;20069;-80
2023/08/04 07:24:53;;;;;;;9.43;2.33;;;27.80;99.90;;;28.77;58.40;100509.22;4880953;28;20506;-76
2023/08/04 07:27:26;;;;;;;7.63;1.90;;;28.50;99.90;;;28.87;57.40;100510.72;4943061;28;20123;-80
2023/08/04 07:29:52;;;;;;;10.00;2.45;;;28.80;99.90;;;28.62;57.75;100516.59;4922149;28;20050;-81
2023/08/04 07:32:18;;;;;;;11.85;2.15;;;28.50;99.90;;;27.30;58.92;100505.81;4922565;28;20477;-80
2023/08/04 07:34:44;;;;;;;8.30;2.40;;;27.90;99.90;;;26.64;60.22;100502.91;4917861;28;20093;-79
2023/08/04 07:37:17;;;;;;;10.75;2.25;;;27.20;99.90;;;26.51;61.42;100512.44;4915669;28;20129;-81
2023/08/04 07:39:43;;;;;;;9.93;2.20;;;27.30;99.90;;;27.10;59.81;100517.16;4896970;28;20689;-79
2023/08/04 07:42:11;;;;;;;5.78;1.90;;;27.90;99.90;;;28.66;56.96;100533.25;4910921;28;20058;-81
2023/08/04 07:44:44;;;;;;;8.23;1.85;;;28.70;99.90;;;29.28;55.23;100547.97;4891629;28;20047;-79
2023/08/04 07:47:12;;;;;;;12.90;2.58;;;28.70;99.90;;;27.55;57.23;100519.91;4897063;28;20605;-81
2023/08/04 07:49:38;;;;;;;7.47;2.00;;;27.80;99.90;;;25.84;60.07;100515.69;4899063;28;20450;-81
2023/08/04 07:52:05;;;;;;;5.10;1.70;;;26.60;99.90;;;24.76;62.48;100514.28;4902429;28;20114;-81
2023/08/04 07:54:38;;;;;;;13.65;2.03;;;26.30;99.90;;;26.04;60.65;100517.97;4895205;28;20094;-80
2023/08/04 07:57:04;;;;;;;6.10;1.85;;;26.60;99.90;;;26.65;59.25;100528.88;4938131;28;20500;-79
2023/08/04 07:59:32;;;;;;;9.32;2.20;;;27.00;99.90;;;27.12;58.83;100531.31;4943580;28;20046;-82
2023/08/04 08:02:23;;;;;;;4.95;1.40;;;27.70;99.90;;;27.67;56.42;100533.78;4922509;28;20047;-82
2023/08/04 08:04:51;;;;;;;5.00;1.75;;;;;;;27.86;57.20;100538.63;4866600;28;20036;-81
2023/08/04 08:07:24;;;;;;;9.05;1.77;;;27.80;99.90;;;26.51;58.36;100539.44;4854424;28;20047;-83
2023/08/04 08:09:52;;;;;;;8.75;2.05;;;26.90;99.90;;;24.95;60.70;100536.50;4878990;28;20043;-82
2023/08/04 08:13:02;;;;;;;6.55;1.42;;;25.50;99.90;;;22.96;64.48;100523.50;4876523;28;20027;-81
2023/08/04 08:15:35;;;;;;;7.65;1.88;;;24.10;99.90;;;22.12;68.74;100513.00;4838853;29;20062;-82
2023/08/04 08:18:04;;;;;;;8.85;1.90;;;23.30;99.90;;;21.78;70.87;100509.28;4854440;29;20037;-82
2023/08/04 08:20:44;;;;;;;7.20;1.85;;;23.00;99.90;;;22.15;71.49;100517.22;4818638;29;20136;-82
2023/08/04 08:23:11;;;;;;;6.72;1.67;;;23.10;99.90;;;22.75;71.15;100521.16;4834956;29;20067;-83
2023/08/04 08:25:52;;;;;;;7.15;1.67;;;;;;;22.96;68.86;100526.16;4836839;29;20056;-81
2023/08/04 08:28:34;;;;;;;6.38;1.77;;;;;;;23.58;67.26;100534.97;4826943;29;20044;-82
2023/08/04 08:31:21;;;;;;;;;;;;;;;;;;;;;
2023/08/04 08:33:51;;;;;;;8.05;1.85;;;;;;;25.38;63.01;100553.28;4824718;29;20636;-82
2023/08/04 08:36:34;;;;;;;7.35;1.50;;;25.40;99.90;;;25.27;62.43;100550.94;4827861;29;20118;-83
2023/08/04 08:39:14;;;;;;;7.45;1.92;;;25.30;99.90;;;24.75;62.28;100568.28;4819166;29;20046;-82
2023/08/04 08:42:23;;;;;;;5.18;1.52;;;;;;;23.45;63.01;100558.75;4803958;29;20040;-81
2023/08/04 08:45:33;;;;;;;5.22;1.83;;;23.90;99.90;;;22.39;65.37;100564.09;4789244;29;20105;-83
2023/08/04 08:51:31;;;;;;;6.20;1.70;;;;;;;21.88;69.08;100559.16;4710839;29;20066;-81
2023/08/04 08:54:05;;;;;;;4.30;1.40;;;22.70;99.90;;;21.88;69.86;100564.53;4767127;29;20048;-80
2023/08/04 08:56:34;;;;;;;7.55;2.10;;;22.50;99.90;;;21.73;71.24;100559.78;4774337;29;20057;-82
2023/08/04 08:59:36;;;;;;;;;;;;;;;;;;;;;
2023/08/04 09:02:17;;;;;;;;;;;;;;;;;;;;;
2023/08/04 09:04:46;;;;;;;7.57;1.75;;;22.10;99.90;;;21.36;71.95;100564.13;4750032;29;20051;-82
2023/08/04 09:07:12;;;;;;;9.60;1.77;;;22.20;99.90;;;21.78;72.98;100561.03;4747369;29;20047;-82
2023/08/04 09:09:51;;;;;;;;;;;;;;;;;;;;;
2023/08/04 09:12:27;;;;;;;;;;;;;;;;;;;;;
2023/08/04 09:15:28;;;;;;;;;;;;;;;;;;;;;
2023/08/04 09:18:43;;;;;;;5.25;1.48;;;24.00;99.90;;;23.86;63.84;100585.88;4723240;29;20051;-83
2023/08/04 09:21:36;;;;;;;8.23;1.90;;;24.20;99.90;;;23.98;64.64;100586.44;4734800;29;20040;-82
2023/08/04 09:24:13;;;;;;;6.43;1.58;;;;;;;24.05;64.96;100598.22;4777302;29;20065;-84
2023/08/04 09:27:25;;;;;;;12.65;1.63;;;;;;;24.08;64.80;100603.25;4834736;29;20130;-82
2023/08/04 09:30:24;;;;;;;10.13;1.35;;;24.40;99.90;;;24.06;61.95;100605.28;4827160;29;20105;-83
2023/08/04 09:33:02;;;;;;;6.85;1.85;;;;;;;23.59;62.90;100613.78;4836025;29;20044;-83
2023/08/04 09:39:16;;;;;;;10.88;1.63;;;23.30;99.90;;;22.24;66.20;100604.84;4780729;29;20042;-83
2023/08/04 09:42:05;;;;;;;8.20;1.60;;;22.80;99.90;;;21.41;68.57;100599.38;4773102;29;20110;-83
2023/08/04 09:44:35;;;;;;;9.40;1.80;;;22.40;99.90;;;21.21;69.50;100608.41;4770665;29;20046;-85
2023/08/04 09:50:37;;;;;;;;;;;;;;;;;;;;;
2023/08/04 09:53:05;;;;;;;5.97;1.60;;;21.80;99.90;;;20.97;71.24;100600.81;4701311;29;20051;-82
2023/08/04 09:55:55;;;;;;;10.88;1.80;;;;;;;21.01;71.35;100604.91;4711623;29;20047;-83
2023/08/04 09:58:25;;;;;;;9.32;2.00;;;21.70;99.90;;;21.20;72.04;100612.06;4734926;29;20085;-83
2023/08/04 10:00:52;;;;;;;10.45;1.80;;;;;;;21.39;71.95;100604.00;4735057;29;20058;-83
2023/08/04 10:03:31;;;;;;;4.47;1.30;;;21.90;99.90;;;21.61;71.90;100610.88;4735267;29;20068;-84
2023/08/04 10:06:17;;;;;;;;;;;;;;;;;;;;;
2023/08/04 10:11:44;;;;;;;4.38;1.55;;;22.80;99.90;;;22.59;66.49;100626.50;4710420;29;20047;-81
2023/08/04 10:14:13;;;;;;;5.32;1.10;;;23.10;99.90;;;22.96;66.51;100633.56;4731374;29;20040;-83
2023/08/04 10:16:53;;;;;;;7.30;1.52;;;23.30;99.90;;;23.26;64.48;100643.94;4768386;29;20039;-82
2023/08/04 10:19:37;;;;;;;;;;;;;;;;;;;;;
2023/08/04 10:22:45;;;;;;;6.13;1.33;;;23.70;99.90;;;23.06;63.29;100643.25;4827073;29;20222;-83
2023/08/04 10:25:34;;;;;;;;;;;23.60;99.90;;;22.85;62.78;100646.25;4855810;29;20033;-82
2023/08/04 10:28:05;;;;;;;7.07;1.98;;;23.30;99.90;;;22.61;65.13;100649.50;4910563;28;20013;-83
2023/08/04 10:30:45;;;;;;;3.67;1.40;;;23.30;99.90;;;22.74;64.59;100657.19;4922810;28;20093;-82
2023/08/04 10:33:35;;;;;;;7.05;1.80;;;23.30;99.90;;;22.93;64.13;100661.56;4899564;28;20036;-83
2023/08/04 10:36:27;;;;;;;;;;;;;;;;;;;;;
2023/08/04 10:38:58;;;;;;;3.70;1.33;;;23.60;99.90;;;23.26;63.98;100669.94;4927128;28;20205;-82
2023/08/04 10:41:23;;;;;;;11.45;1.88;;;23.70;99.90;;;23.33;63.81;100676.41;4879889;28;20042;-82
2023/08/04 10:44:02;;;;;;;7.43;1.67;;;;;;;23.11;63.30;100675.03;4895805;28;20054;-82
2023/08/04 10:47:11;;;;;;;5.85;1.77;;;23.60;99.90;;;22.82;62.83;100669.84;4912478;28;20584;-85
2023/08/04 10:49:37;;;;;;;4.75;1.42;;;23.50;99.90;;;22.94;64.58;100685.59;4897209;28;20035;-79
2023/08/04 10:52:07;;;;;;;5.72;1.75;;;23.50;99.90;;;22.87;64.57;100678.28;4933407;28;20046;-78
2023/08/04 10:54:35;;;;;;;6.15;1.52;;;23.50;99.90;;;23.19;65.12;100669.72;4917746;28;20047;-79
2023/08/04 10:57:04;;;;;;;7.18;1.60;;;23.70;99.90;;;23.28;62.90;100676.88;4931633;28;20046;-81
2023/08/04 10:59:31;;;;;;;5.35;1.60;;;23.90;99.90;;;23.65;63.72;100681.16;4947782;28;20089;-80
2023/08/04 11:02:04;;;;;;;5.63;1.85;;;24.00;99.90;;;23.55;62.68;100673.19;4916810;28;20438;-80
2023/08/04 11:04:37;;;;;;;7.55;1.55;;;24.00;99.90;;;23.18;62.60;100677.97;4903680;28;20500;-80
2023/08/04 11:07:11;;;;;;;5.07;1.30;;;23.80;99.90;;;23.00;64.52;100684.19;4895379;28;20454;-80
2023/08/04 11:09:42;;;;;;;2.75;1.00;;;23.60;99.90;;;22.71;64.10;100687.03;4920079;28;20043;-79
2023/08/04 11:12:14;;;;;;;4.57;1.40;;;23.40;99.90;;;22.55;64.86;100679.66;4948742;28;20038;-79
2023/08/04 11:14:40;;;;;;;4.60;1.42;;;23.40;99.90;;;22.88;63.83;100685.34;4955776;28;20034;-82
2023/08/04 11:17:20;;;;;;;2.70;1.00;;;23.50;99.90;;;23.03;62.18;100683.84;4894708;28;20051;-78
2023/08/04 11:19:55;;;;;;;4.75;1.40;;;23.60;99.90;;;23.10;62.26;100679.53;4917026;28;20063;-79
2023/08/04 11:22:24;;;;;;;5.78;1.38;;;23.60;99.90;;;23.20;61.69;100695.59;4961543;28;20046;-79
2023/08/04 11:24:52;;;;;;;5.60;1.45;;;23.70;99.90;;;23.33;61.39;100690.66;4938928;28;20042;-79
2023/08/04 11:27:23;;;;;;;5.15;1.45;;;24.00;99.90;;;23.64;61.64;100698.28;4924657;28;20189;-79
2023/08/04 11:29:53;;;;;;;3.72;1.40;;;24.20;99.90;;;24.04;60.35;100706.78;4910520;28;21813;-79
2023/08/04 11:32:21;;;;;;;3.67;1.08;;;24.40;99.90;;;24.01;58.88;100701.75;4924714;28;20039;-80
2023/08/04 11:34:54;;;;;;;8.63;1.70;;;24.50;99.90;;;24.16;59.17;100702.84;4898964;28;20137;-79
2023/08/04 11:37:21;;;;;;;6.10;1.88;;;24.70;99.90;;;24.52;58.60;100716.97;4927535;28;20099;-80
2023/08/04 11:39:48;;;;;;;3.22;0.90;;;24.90;99.90;;;24.82;58.06;100713.88;4894029;28;20121;-81
2023/08/04 11:42:13;;;;;;;6.43;1.33;;;25.20;99.90;;;24.84;57.94;100723.47;4937652;28;20047;-79
2023/08/04 11:44:45;;;;;;;3.60;1.13;;;25.20;99.90;;;24.67;57.76;100711.81;4929119;28;20054;-79
2023/08/04 11:47:13;;;;;;;3.38;1.00;;;25.20;99.90;;;24.70;57.85;100721.41;4931219;28;20042;-79
2023/08/04 11:49:40;;;;;;;5.63;1.35;;;25.20;99.90;;;24.72;55.87;100708.63;4923376;28;20061;-78
2023/08/04 11:52:14;;;;;;;2.63;0.95;;;25.30;99.90;;;24.67;55.54;100727.97;4957781;28;20041;-78